sensor_id;sensor_type;location;lat;lon;timestamp;P1;durP1;ratioP1;P2;durP2;ratioP2
8094;SDS011;4090;49.270;8.696;2022-10-20T00:00:21;21.88;;;9.68;;
8094;SDS011;4090;49.270;8.696;2022-10-20T00:03:03;16.08;;;8.40;;
8094;SDS011;4090;49.270;8.696;2022-10-20T00:05:45;21.30;;;9.23;;
8094;SDS011;4090;49.270;8.696;2022-10-20T00:08:27;20.02;;;9.10;;
8094;SDS011;4090;49.270;8.696;2022-10-20T00:11:10;16.17;;;8.95;;
8094;SDS011;4090;49.270;8.696;2022-10-20T00:13:53;18.27;;;8.77;;
8094;SDS011;4090;49.270;8.696;2022-10-20T00:16:38;16.38;;;8.73;;
8094;SDS011;4090;49.270;8.696;2022-10-20T00:19:20;19.48;;;9.20;;
8094;SDS011;4090;49.270;8.696;2022-10-20T00:22:02;14.85;;;8.95;;
8094;SDS011;4090;49.270;8.696;2022-10-20T00:24:44;17.15;;;9.00;;
8094;SDS011;4090;49.270;8.696;2022-10-20T00:27:26;15.85;;;8.80;;
8094;SDS011;4090;49.270;8.696;2022-10-20T00:30:08;14.40;;;7.95;;
8094;SDS011;4090;49.270;8.696;2022-10-20T00:32:52;15.07;;;8.27;;
8094;SDS011;4090;49.270;8.696;2022-10-20T00:35:36;19.67;;;9.25;;
8094;SDS011;4090;49.270;8.696;2022-10-20T00:38:18;14.77;;;8.27;;
8094;SDS011;4090;49.270;8.696;2022-10-20T00:41:00;16.17;;;8.75;;
8094;SDS011;4090;49.270;8.696;2022-10-20T00:43:43;13.50;;;8.23;;
8094;SDS011;4090;49.270;8.696;2022-10-20T00:46:27;15.73;;;8.10;;
8094;SDS011;4090;49.270;8.696;2022-10-20T00:49:15;20.77;;;8.95;;
8094;SDS011;4090;49.270;8.696;2022-10-20T00:51:59;14.25;;;8.30;;
8094;SDS011;4090;49.270;8.696;2022-10-20T00:54:41;15.38;;;8.60;;
8094;SDS011;4090;49.270;8.696;2022-10-20T00:57:23;14.43;;;7.80;;
8094;SDS011;4090;49.270;8.696;2022-10-20T01:00:06;15.80;;;8.63;;
8094;SDS011;4090;49.270;8.696;2022-10-20T01:02:49;12.88;;;8.00;;
8094;SDS011;4090;49.270;8.696;2022-10-20T01:05:33;14.55;;;8.60;;
8094;SDS011;4090;49.270;8.696;2022-10-20T01:08:15;21.10;;;9.43;;
8094;SDS011;4090;49.270;8.696;2022-10-20T01:11:00;18.65;;;9.13;;
8094;SDS011;4090;49.270;8.696;2022-10-20T01:16:56;14.68;;;8.00;;
8094;SDS011;4090;49.270;8.696;2022-10-20T01:20:02;16.88;;;8.35;;
8094;SDS011;4090;49.270;8.696;2022-10-20T01:23:26;16.15;;;8.85;;
8094;SDS011;4090;49.270;8.696;2022-10-20T01:29:47;18.33;;;8.80;;
8094;SDS011;4090;49.270;8.696;2022-10-20T01:32:36;14.48;;;8.35;;
8094;SDS011;4090;49.270;8.696;2022-10-20T01:35:43;15.48;;;8.55;;
8094;SDS011;4090;49.270;8.696;2022-10-20T01:38:33;17.30;;;7.95;;
8094;SDS011;4090;49.270;8.696;2022-10-20T01:41:21;18.60;;;8.40;;
8094;SDS011;4090;49.270;8.696;2022-10-20T01:44:24;15.90;;;8.73;;
8094;SDS011;4090;49.270;8.696;2022-10-20T01:47:10;16.08;;;8.32;;
8094;SDS011;4090;49.270;8.696;2022-10-20T01:49:54;13.45;;;8.00;;
8094;SDS011;4090;49.270;8.696;2022-10-20T01:52:38;17.13;;;7.93;;
8094;SDS011;4090;49.270;8.696;2022-10-20T01:55:20;15.88;;;8.13;;
8094;SDS011;4090;49.270;8.696;2022-10-20T01:58:07;14.13;;;8.23;;
8094;SDS011;4090;49.270;8.696;2022-10-20T02:01:11;16.63;;;8.05;;
8094;SDS011;4090;49.270;8.696;2022-10-20T02:03:59;13.32;;;8.38;;
8094;SDS011;4090;49.270;8.696;2022-10-20T02:06:44;14.02;;;8.40;;
8094;SDS011;4090;49.270;8.696;2022-10-20T02:09:35;15.57;;;8.40;;
8094;SDS011;4090;49.270;8.696;2022-10-20T02:12:21;14.98;;;8.35;;
8094;SDS011;4090;49.270;8.696;2022-10-20T02:15:08;18.15;;;8.40;;
8094;SDS011;4090;49.270;8.696;2022-10-20T02:17:53;14.82;;;8.48;;
8094;SDS011;4090;49.270;8.696;2022-10-20T02:20:41;16.52;;;9.50;;
8094;SDS011;4090;49.270;8.696;2022-10-20T02:23:27;14.82;;;8.82;;
8094;SDS011;4090;49.270;8.696;2022-10-20T02:26:12;16.02;;;8.18;;
8094;SDS011;4090;49.270;8.696;2022-10-20T02:28:56;12.32;;;7.53;;
8094;SDS011;4090;49.270;8.696;2022-10-20T02:31:41;13.27;;;8.30;;
8094;SDS011;4090;49.270;8.696;2022-10-20T02:34:24;14.50;;;8.07;;
8094;SDS011;4090;49.270;8.696;2022-10-20T02:37:07;14.57;;;8.43;;
8094;SDS011;4090;49.270;8.696;2022-10-20T02:39:49;16.05;;;7.85;;
8094;SDS011;4090;49.270;8.696;2022-10-20T02:42:31;16.88;;;8.75;;
8094;SDS011;4090;49.270;8.696;2022-10-20T02:45:13;13.77;;;7.47;;
8094;SDS011;4090;49.270;8.696;2022-10-20T02:47:55;17.10;;;8.70;;
8094;SDS011;4090;49.270;8.696;2022-10-20T02:50:37;15.52;;;8.30;;
8094;SDS011;4090;49.270;8.696;2022-10-20T02:53:20;17.50;;;9.27;;
8094;SDS011;4090;49.270;8.696;2022-10-20T02:56:02;13.63;;;8.30;;
8094;SDS011;4090;49.270;8.696;2022-10-20T02:58:45;15.05;;;8.13;;
8094;SDS011;4090;49.270;8.696;2022-10-20T03:01:26;15.40;;;8.18;;
8094;SDS011;4090;49.270;8.696;2022-10-20T03:04:08;12.73;;;7.65;;
8094;SDS011;4090;49.270;8.696;2022-10-20T03:06:50;14.00;;;8.02;;
8094;SDS011;4090;49.270;8.696;2022-10-20T03:09:34;16.27;;;8.63;;
8094;SDS011;4090;49.270;8.696;2022-10-20T03:12:16;15.43;;;7.18;;
8094;SDS011;4090;49.270;8.696;2022-10-20T03:14:57;15.25;;;8.05;;
8094;SDS011;4090;49.270;8.696;2022-10-20T03:17:39;12.02;;;7.80;;
8094;SDS011;4090;49.270;8.696;2022-10-20T03:20:21;14.88;;;8.00;;
8094;SDS011;4090;49.270;8.696;2022-10-20T03:23:03;16.65;;;8.15;;
8094;SDS011;4090;49.270;8.696;2022-10-20T03:25:46;16.88;;;8.95;;
8094;SDS011;4090;49.270;8.696;2022-10-20T03:28:28;15.38;;;8.30;;
8094;SDS011;4090;49.270;8.696;2022-10-20T03:31:10;14.98;;;8.75;;
8094;SDS011;4090;49.270;8.696;2022-10-20T03:33:52;17.13;;;8.52;;
8094;SDS011;4090;49.270;8.696;2022-10-20T03:36:34;14.95;;;8.15;;
8094;SDS011;4090;49.270;8.696;2022-10-20T03:39:16;11.48;;;8.02;;
8094;SDS011;4090;49.270;8.696;2022-10-20T03:41:59;19.05;;;8.63;;
8094;SDS011;4090;49.270;8.696;2022-10-20T03:44:41;17.38;;;8.90;;
8094;SDS011;4090;49.270;8.696;2022-10-20T03:47:24;14.52;;;8.00;;
8094;SDS011;4090;49.270;8.696;2022-10-20T03:50:06;12.13;;;7.65;;
8094;SDS011;4090;49.270;8.696;2022-10-20T03:52:48;13.00;;;7.65;;
8094;SDS011;4090;49.270;8.696;2022-10-20T03:55:30;13.88;;;7.65;;
8094;SDS011;4090;49.270;8.696;2022-10-20T03:58:14;14.10;;;8.07;;
8094;SDS011;4090;49.270;8.696;2022-10-20T04:00:56;15.43;;;8.18;;
8094;SDS011;4090;49.270;8.696;2022-10-20T04:03:38;14.90;;;8.07;;
8094;SDS011;4090;49.270;8.696;2022-10-20T04:06:20;13.18;;;8.30;;
8094;SDS011;4090;49.270;8.696;2022-10-20T04:09:02;13.63;;;8.55;;
8094;SDS011;4090;49.270;8.696;2022-10-20T04:11:44;14.30;;;7.88;;
8094;SDS011;4090;49.270;8.696;2022-10-20T04:14:28;14.88;;;7.95;;
8094;SDS011;4090;49.270;8.696;2022-10-20T04:17:10;20.98;;;7.97;;
8094;SDS011;4090;49.270;8.696;2022-10-20T04:19:52;11.68;;;7.18;;
8094;SDS011;4090;49.270;8.696;2022-10-20T04:22:34;19.27;;;8.98;;
8094;SDS011;4090;49.270;8.696;2022-10-20T04:25:17;14.85;;;8.27;;
8094;SDS011;4090;49.270;8.696;2022-10-20T04:27:58;14.20;;;7.57;;
8094;SDS011;4090;49.270;8.696;2022-10-20T04:30:42;12.23;;;7.30;;
8094;SDS011;4090;49.270;8.696;2022-10-20T04:33:24;15.38;;;8.00;;
8094;SDS011;4090;49.270;8.696;2022-10-20T04:36:07;12.02;;;7.95;;
8094;SDS011;4090;49.270;8.696;2022-10-20T04:38:52;14.40;;;8.23;;
8094;SDS011;4090;49.270;8.696;2022-10-20T04:41:34;15.48;;;8.25;;
8094;SDS011;4090;49.270;8.696;2022-10-20T04:44:16;15.57;;;7.78;;
8094;SDS011;4090;49.270;8.696;2022-10-20T04:46:59;13.00;;;8.20;;
8094;SDS011;4090;49.270;8.696;2022-10-20T04:49:41;15.77;;;8.45;;
8094;SDS011;4090;49.270;8.696;2022-10-20T04:52:23;17.63;;;8.18;;
8094;SDS011;4090;49.270;8.696;2022-10-20T04:55:05;14.65;;;8.70;;
8094;SDS011;4090;49.270;8.696;2022-10-20T04:57:47;14.77;;;8.80;;
8094;SDS011;4090;49.270;8.696;2022-10-20T05:00:29;14.93;;;8.45;;
8094;SDS011;4090;49.270;8.696;2022-10-20T05:03:12;14.52;;;8.18;;
8094;SDS011;4090;49.270;8.696;2022-10-20T05:06:05;14.98;;;9.25;;
8094;SDS011;4090;49.270;8.696;2022-10-20T05:08:51;15.48;;;8.52;;
8094;SDS011;4090;49.270;8.696;2022-10-20T05:11:34;15.43;;;8.70;;
8094;SDS011;4090;49.270;8.696;2022-10-20T05:14:17;12.98;;;8.18;;
8094;SDS011;4090;49.270;8.696;2022-10-20T05:16:59;15.55;;;8.60;;
8094;SDS011;4090;49.270;8.696;2022-10-20T05:19:42;16.77;;;9.13;;
8094;SDS011;4090;49.270;8.696;2022-10-20T05:22:24;13.45;;;8.88;;
8094;SDS011;4090;49.270;8.696;2022-10-20T05:25:07;14.43;;;8.32;;
8094;SDS011;4090;49.270;8.696;2022-10-20T05:27:49;17.77;;;9.02;;
8094;SDS011;4090;49.270;8.696;2022-10-20T05:30:32;22.73;;;9.68;;
8094;SDS011;4090;49.270;8.696;2022-10-20T05:33:14;19.58;;;9.52;;
8094;SDS011;4090;49.270;8.696;2022-10-20T05:35:57;14.15;;;8.80;;
8094;SDS011;4090;49.270;8.696;2022-10-20T05:38:39;13.80;;;8.35;;
8094;SDS011;4090;49.270;8.696;2022-10-20T05:41:22;15.10;;;9.15;;
8094;SDS011;4090;49.270;8.696;2022-10-20T05:44:06;17.42;;;9.32;;
8094;SDS011;4090;49.270;8.696;2022-10-20T05:46:48;15.20;;;9.05;;
8094;SDS011;4090;49.270;8.696;2022-10-20T05:49:30;17.10;;;9.50;;
8094;SDS011;4090;49.270;8.696;2022-10-20T05:52:14;21.83;;;9.85;;
8094;SDS011;4090;49.270;8.696;2022-10-20T05:54:55;17.80;;;10.10;;
8094;SDS011;4090;49.270;8.696;2022-10-20T05:57:38;16.55;;;9.25;;
8094;SDS011;4090;49.270;8.696;2022-10-20T06:00:20;16.92;;;10.18;;
8094;SDS011;4090;49.270;8.696;2022-10-20T06:03:09;20.05;;;10.18;;
8094;SDS011;4090;49.270;8.696;2022-10-20T06:05:55;17.50;;;9.50;;
8094;SDS011;4090;49.270;8.696;2022-10-20T06:08:39;17.13;;;9.80;;
8094;SDS011;4090;49.270;8.696;2022-10-20T06:11:21;19.25;;;10.88;;
8094;SDS011;4090;49.270;8.696;2022-10-20T06:14:03;17.70;;;10.88;;
8094;SDS011;4090;49.270;8.696;2022-10-20T06:16:45;22.83;;;11.90;;
8094;SDS011;4090;49.270;8.696;2022-10-20T06:19:31;17.98;;;10.73;;
8094;SDS011;4090;49.270;8.696;2022-10-20T06:22:12;21.42;;;11.07;;
8094;SDS011;4090;49.270;8.696;2022-10-20T06:24:56;21.23;;;11.48;;
8094;SDS011;4090;49.270;8.696;2022-10-20T06:27:38;20.50;;;10.88;;
8094;SDS011;4090;49.270;8.696;2022-10-20T06:30:21;18.20;;;10.38;;
8094;SDS011;4090;49.270;8.696;2022-10-20T06:33:03;19.00;;;11.05;;
8094;SDS011;4090;49.270;8.696;2022-10-20T06:35:45;20.20;;;11.55;;
8094;SDS011;4090;49.270;8.696;2022-10-20T06:38:27;19.63;;;11.18;;
8094;SDS011;4090;49.270;8.696;2022-10-20T06:41:11;18.30;;;11.13;;
8094;SDS011;4090;49.270;8.696;2022-10-20T06:43:53;22.10;;;11.25;;
8094;SDS011;4090;49.270;8.696;2022-10-20T06:46:38;20.27;;;11.65;;
8094;SDS011;4090;49.270;8.696;2022-10-20T06:49:20;26.92;;;12.02;;
8094;SDS011;4090;49.270;8.696;2022-10-20T06:52:03;18.15;;;10.90;;
8094;SDS011;4090;49.270;8.696;2022-10-20T06:54:45;20.52;;;10.90;;
8094;SDS011;4090;49.270;8.696;2022-10-20T06:57:29;20.95;;;11.57;;
8094;SDS011;4090;49.270;8.696;2022-10-20T07:00:11;23.25;;;12.00;;
8094;SDS011;4090;49.270;8.696;2022-10-20T07:02:54;25.55;;;12.07;;
8094;SDS011;4090;49.270;8.696;2022-10-20T07:05:35;23.75;;;12.30;;
8094;SDS011;4090;49.270;8.696;2022-10-20T07:08:17;24.83;;;12.63;;
8094;SDS011;4090;49.270;8.696;2022-10-20T07:11:00;22.05;;;12.43;;
8094;SDS011;4090;49.270;8.696;2022-10-20T07:13:44;21.75;;;12.48;;
8094;SDS011;4090;49.270;8.696;2022-10-20T07:16:27;22.65;;;12.02;;
8094;SDS011;4090;49.270;8.696;2022-10-20T07:19:11;21.80;;;11.55;;
8094;SDS011;4090;49.270;8.696;2022-10-20T07:21:53;25.52;;;12.95;;
8094;SDS011;4090;49.270;8.696;2022-10-20T07:24:35;21.20;;;11.52;;
8094;SDS011;4090;49.270;8.696;2022-10-20T07:27:17;22.35;;;11.93;;
8094;SDS011;4090;49.270;8.696;2022-10-20T07:30:00;19.58;;;11.93;;
8094;SDS011;4090;49.270;8.696;2022-10-20T07:32:42;20.92;;;12.68;;
8094;SDS011;4090;49.270;8.696;2022-10-20T07:35:24;24.27;;;12.25;;
8094;SDS011;4090;49.270;8.696;2022-10-20T07:38:06;23.67;;;12.52;;
8094;SDS011;4090;49.270;8.696;2022-10-20T07:40:47;22.63;;;11.50;;
8094;SDS011;4090;49.270;8.696;2022-10-20T07:43:29;22.00;;;12.10;;
8094;SDS011;4090;49.270;8.696;2022-10-20T07:46:13;21.48;;;11.80;;
8094;SDS011;4090;49.270;8.696;2022-10-20T07:48:55;25.90;;;12.80;;
8094;SDS011;4090;49.270;8.696;2022-10-20T07:51:37;22.15;;;11.88;;
8094;SDS011;4090;49.270;8.696;2022-10-20T07:54:19;24.17;;;11.73;;
8094;SDS011;4090;49.270;8.696;2022-10-20T07:57:01;22.40;;;11.52;;
8094;SDS011;4090;49.270;8.696;2022-10-20T07:59:43;22.85;;;12.13;;
8094;SDS011;4090;49.270;8.696;2022-10-20T08:02:26;22.05;;;11.98;;
8094;SDS011;4090;49.270;8.696;2022-10-20T08:05:08;23.73;;;11.75;;
8094;SDS011;4090;49.270;8.696;2022-10-20T08:07:50;21.40;;;11.98;;
8094;SDS011;4090;49.270;8.696;2022-10-20T08:10:32;22.25;;;11.40;;
8094;SDS011;4090;49.270;8.696;2022-10-20T08:13:13;22.85;;;11.75;;
8094;SDS011;4090;49.270;8.696;2022-10-20T08:15:55;20.58;;;12.23;;
8094;SDS011;4090;49.270;8.696;2022-10-20T08:18:39;25.50;;;12.68;;
8094;SDS011;4090;49.270;8.696;2022-10-20T08:21:22;24.63;;;11.98;;
8094;SDS011;4090;49.270;8.696;2022-10-20T08:24:04;19.17;;;11.23;;
8094;SDS011;4090;49.270;8.696;2022-10-20T08:26:46;19.52;;;11.07;;
8094;SDS011;4090;49.270;8.696;2022-10-20T08:29:28;24.70;;;11.70;;
8094;SDS011;4090;49.270;8.696;2022-10-20T08:32:10;23.35;;;11.70;;
8094;SDS011;4090;49.270;8.696;2022-10-20T08:34:54;24.45;;;11.75;;
8094;SDS011;4090;49.270;8.696;2022-10-20T08:37:36;20.10;;;12.05;;
8094;SDS011;4090;49.270;8.696;2022-10-20T08:40:19;17.38;;;11.15;;
8094;SDS011;4090;49.270;8.696;2022-10-20T08:43:03;16.83;;;11.02;;
8094;SDS011;4090;49.270;8.696;2022-10-20T08:45:45;21.40;;;11.48;;
8094;SDS011;4090;49.270;8.696;2022-10-20T08:48:28;20.25;;;11.82;;
8094;SDS011;4090;49.270;8.696;2022-10-20T08:51:17;23.40;;;11.45;;
8094;SDS011;4090;49.270;8.696;2022-10-20T08:54:00;20.83;;;11.50;;
8094;SDS011;4090;49.270;8.696;2022-10-20T08:56:43;18.73;;;10.63;;
8094;SDS011;4090;49.270;8.696;2022-10-20T08:59:26;19.67;;;11.10;;
8094;SDS011;4090;49.270;8.696;2022-10-20T09:02:12;18.10;;;10.43;;
8094;SDS011;4090;49.270;8.696;2022-10-20T09:04:57;19.25;;;10.90;;
8094;SDS011;4090;49.270;8.696;2022-10-20T09:07:42;18.52;;;10.63;;
8094;SDS011;4090;49.270;8.696;2022-10-20T09:10:25;18.77;;;10.65;;
8094;SDS011;4090;49.270;8.696;2022-10-20T09:13:14;17.50;;;10.45;;
8094;SDS011;4090;49.270;8.696;2022-10-20T09:16:03;17.55;;;10.25;;
8094;SDS011;4090;49.270;8.696;2022-10-20T09:18:49;15.32;;;9.52;;
8094;SDS011;4090;49.270;8.696;2022-10-20T09:21:34;21.33;;;10.98;;
8094;SDS011;4090;49.270;8.696;2022-10-20T09:24:20;16.13;;;9.38;;
8094;SDS011;4090;49.270;8.696;2022-10-20T09:27:19;18.42;;;9.73;;
8094;SDS011;4090;49.270;8.696;2022-10-20T09:30:13;18.52;;;9.40;;
8094;SDS011;4090;49.270;8.696;2022-10-20T09:32:56;18.08;;;10.02;;
8094;SDS011;4090;49.270;8.696;2022-10-20T09:35:38;16.20;;;8.93;;
8094;SDS011;4090;49.270;8.696;2022-10-20T09:38:21;14.98;;;9.45;;
8094;SDS011;4090;49.270;8.696;2022-10-20T09:41:11;12.50;;;8.32;;
8094;SDS011;4090;49.270;8.696;2022-10-20T09:43:57;13.10;;;8.25;;
8094;SDS011;4090;49.270;8.696;2022-10-20T09:46:43;11.52;;;7.25;;
8094;SDS011;4090;49.270;8.696;2022-10-20T09:49:28;12.77;;;8.20;;
8094;SDS011;4090;49.270;8.696;2022-10-20T09:52:14;11.02;;;7.28;;
8094;SDS011;4090;49.270;8.696;2022-10-20T09:54:59;13.63;;;7.78;;
8094;SDS011;4090;49.270;8.696;2022-10-20T09:57:46;11.38;;;7.15;;
8094;SDS011;4090;49.270;8.696;2022-10-20T10:00:30;9.63;;;6.68;;
8094;SDS011;4090;49.270;8.696;2022-10-20T10:03:14;14.05;;;6.65;;
8094;SDS011;4090;49.270;8.696;2022-10-20T10:06:00;10.10;;;6.35;;
8094;SDS011;4090;49.270;8.696;2022-10-20T10:09:01;10.50;;;6.80;;
8094;SDS011;4090;49.270;8.696;2022-10-20T10:11:43;10.48;;;7.07;;
8094;SDS011;4090;49.270;8.696;2022-10-20T10:14:27;9.93;;;6.40;;
8094;SDS011;4090;49.270;8.696;2022-10-20T10:17:09;9.82;;;6.60;;
8094;SDS011;4090;49.270;8.696;2022-10-20T10:19:51;11.52;;;7.22;;
8094;SDS011;4090;49.270;8.696;2022-10-20T10:22:33;10.00;;;6.53;;
8094;SDS011;4090;49.270;8.696;2022-10-20T10:25:17;9.45;;;6.25;;
8094;SDS011;4090;49.270;8.696;2022-10-20T10:28:04;12.90;;;6.30;;
8094;SDS011;4090;49.270;8.696;2022-10-20T10:31:08;8.43;;;6.28;;
8094;SDS011;4090;49.270;8.696;2022-10-20T10:34:04;11.07;;;6.85;;
8094;SDS011;4090;49.270;8.696;2022-10-20T10:37:09;10.07;;;6.85;;
8094;SDS011;4090;49.270;8.696;2022-10-20T10:39:54;10.30;;;5.78;;
8094;SDS011;4090;49.270;8.696;2022-10-20T10:42:40;9.10;;;5.88;;
8094;SDS011;4090;49.270;8.696;2022-10-20T10:45:40;10.30;;;6.60;;
8094;SDS011;4090;49.270;8.696;2022-10-20T10:48:33;12.27;;;6.65;;
8094;SDS011;4090;49.270;8.696;2022-10-20T10:51:48;9.52;;;6.22;;
8094;SDS011;4090;49.270;8.696;2022-10-20T10:54:47;15.43;;;7.00;;
8094;SDS011;4090;49.270;8.696;2022-10-20T10:57:40;13.82;;;7.05;;
8094;SDS011;4090;49.270;8.696;2022-10-20T11:00:35;11.50;;;6.80;;
8094;SDS011;4090;49.270;8.696;2022-10-20T11:03:26;14.05;;;7.00;;
8094;SDS011;4090;49.270;8.696;2022-10-20T11:06:30;9.77;;;6.60;;
8094;SDS011;4090;49.270;8.696;2022-10-20T11:09:20;11.07;;;7.05;;
8094;SDS011;4090;49.270;8.696;2022-10-20T11:12:17;8.30;;;5.95;;
8094;SDS011;4090;49.270;8.696;2022-10-20T11:15:12;7.50;;;5.55;;
8094;SDS011;4090;49.270;8.696;2022-10-20T11:18:05;9.27;;;6.20;;
8094;SDS011;4090;49.270;8.696;2022-10-20T11:20:55;8.75;;;5.60;;
8094;SDS011;4090;49.270;8.696;2022-10-20T11:23:49;11.23;;;6.85;;
8094;SDS011;4090;49.270;8.696;2022-10-20T11:26:42;13.30;;;6.25;;
8094;SDS011;4090;49.270;8.696;2022-10-20T11:29:27;11.95;;;6.57;;
8094;SDS011;4090;49.270;8.696;2022-10-20T11:32:16;8.27;;;6.03;;
8094;SDS011;4090;49.270;8.696;2022-10-20T11:35:11;9.02;;;6.18;;
8094;SDS011;4090;49.270;8.696;2022-10-20T11:38:01;9.43;;;6.00;;
8094;SDS011;4090;49.270;8.696;2022-10-20T11:40:53;12.18;;;6.80;;
8094;SDS011;4090;49.270;8.696;2022-10-20T11:43:42;11.10;;;6.88;;
8094;SDS011;4090;49.270;8.696;2022-10-20T11:46:31;10.18;;;6.85;;
8094;SDS011;4090;49.270;8.696;2022-10-20T11:49:18;10.65;;;7.30;;
8094;SDS011;4090;49.270;8.696;2022-10-20T11:52:05;11.15;;;6.35;;
8094;SDS011;4090;49.270;8.696;2022-10-20T11:55:10;10.20;;;6.60;;
8094;SDS011;4090;49.270;8.696;2022-10-20T11:58:15;10.98;;;6.93;;
8094;SDS011;4090;49.270;8.696;2022-10-20T12:01:13;10.25;;;6.00;;
8094;SDS011;4090;49.270;8.696;2022-10-20T12:04:14;9.85;;;6.57;;
8094;SDS011;4090;49.270;8.696;2022-10-20T12:10:31;12.55;;;7.95;;
8094;SDS011;4090;49.270;8.696;2022-10-20T12:13:22;15.38;;;8.38;;
8094;SDS011;4090;49.270;8.696;2022-10-20T12:16:11;13.38;;;8.75;;
8094;SDS011;4090;49.270;8.696;2022-10-20T12:19:15;16.40;;;9.43;;
8094;SDS011;4090;49.270;8.696;2022-10-20T12:21:58;13.43;;;8.80;;
8094;SDS011;4090;49.270;8.696;2022-10-20T12:24:43;14.75;;;8.48;;
8094;SDS011;4090;49.270;8.696;2022-10-20T12:31:19;16.35;;;8.95;;
8094;SDS011;4090;49.270;8.696;2022-10-20T12:34:01;14.55;;;8.90;;
8094;SDS011;4090;49.270;8.696;2022-10-20T12:36:43;12.20;;;8.88;;
8094;SDS011;4090;49.270;8.696;2022-10-20T12:39:26;12.93;;;8.45;;
8094;SDS011;4090;49.270;8.696;2022-10-20T12:42:17;21.83;;;9.32;;
8094;SDS011;4090;49.270;8.696;2022-10-20T12:45:04;17.73;;;8.85;;
8094;SDS011;4090;49.270;8.696;2022-10-20T12:47:48;17.73;;;9.75;;
8094;SDS011;4090;49.270;8.696;2022-10-20T12:50:34;14.85;;;9.38;;
8094;SDS011;4090;49.270;8.696;2022-10-20T12:53:20;13.00;;;9.18;;
8094;SDS011;4090;49.270;8.696;2022-10-20T12:56:06;17.05;;;9.63;;
8094;SDS011;4090;49.270;8.696;2022-10-20T12:59:06;13.25;;;9.02;;
8094;SDS011;4090;49.270;8.696;2022-10-20T13:08:26;14.48;;;9.15;;
8094;SDS011;4090;49.270;8.696;2022-10-20T13:14:41;13.13;;;9.27;;
8094;SDS011;4090;49.270;8.696;2022-10-20T13:17:34;15.15;;;9.38;;
8094;SDS011;4090;49.270;8.696;2022-10-20T13:20:29;13.77;;;8.73;;
8094;SDS011;4090;49.270;8.696;2022-10-20T13:23:24;12.73;;;8.15;;
8094;SDS011;4090;49.270;8.696;2022-10-20T13:26:12;17.05;;;8.90;;
8094;SDS011;4090;49.270;8.696;2022-10-20T13:29:01;14.60;;;8.85;;
8094;SDS011;4090;49.270;8.696;2022-10-20T13:31:58;12.65;;;8.88;;
8094;SDS011;4090;49.270;8.696;2022-10-20T13:34:53;14.57;;;8.93;;
8094;SDS011;4090;49.270;8.696;2022-10-20T13:37:44;13.10;;;8.93;;
8094;SDS011;4090;49.270;8.696;2022-10-20T13:40:37;14.88;;;8.95;;
8094;SDS011;4090;49.270;8.696;2022-10-20T13:43:28;11.73;;;8.27;;
8094;SDS011;4090;49.270;8.696;2022-10-20T13:46:23;11.00;;;8.35;;
8094;SDS011;4090;49.270;8.696;2022-10-20T13:49:26;13.52;;;9.07;;
8094;SDS011;4090;49.270;8.696;2022-10-20T13:52:16;12.93;;;8.50;;
8094;SDS011;4090;49.270;8.696;2022-10-20T13:55:00;16.45;;;9.57;;
8094;SDS011;4090;49.270;8.696;2022-10-20T13:57:45;12.68;;;9.20;;
8094;SDS011;4090;49.270;8.696;2022-10-20T14:00:31;16.20;;;9.15;;
8094;SDS011;4090;49.270;8.696;2022-10-20T14:03:16;16.10;;;10.68;;
8094;SDS011;4090;49.270;8.696;2022-10-20T14:05:58;14.43;;;9.32;;
8094;SDS011;4090;49.270;8.696;2022-10-20T14:08:44;13.55;;;8.85;;
8094;SDS011;4090;49.270;8.696;2022-10-20T14:11:28;15.90;;;9.43;;
8094;SDS011;4090;49.270;8.696;2022-10-20T14:14:12;16.05;;;9.27;;
8094;SDS011;4090;49.270;8.696;2022-10-20T14:16:57;13.45;;;8.77;;
8094;SDS011;4090;49.270;8.696;2022-10-20T14:19:41;11.75;;;8.88;;
8094;SDS011;4090;49.270;8.696;2022-10-20T14:22:23;16.83;;;9.25;;
8094;SDS011;4090;49.270;8.696;2022-10-20T14:25:07;15.32;;;9.07;;
8094;SDS011;4090;49.270;8.696;2022-10-20T14:27:50;14.57;;;9.75;;
8094;SDS011;4090;49.270;8.696;2022-10-20T14:30:34;17.75;;;10.48;;
8094;SDS011;4090;49.270;8.696;2022-10-20T14:33:17;18.50;;;11.13;;
8094;SDS011;4090;49.270;8.696;2022-10-20T14:35:59;25.92;;;16.67;;
8094;SDS011;4090;49.270;8.696;2022-10-20T14:38:44;18.08;;;12.30;;
8094;SDS011;4090;49.270;8.696;2022-10-20T14:41:29;18.17;;;11.50;;
8094;SDS011;4090;49.270;8.696;2022-10-20T14:44:13;14.65;;;10.23;;
8094;SDS011;4090;49.270;8.696;2022-10-20T14:47:01;15.13;;;9.60;;
8094;SDS011;4090;49.270;8.696;2022-10-20T14:49:46;15.52;;;10.80;;
8094;SDS011;4090;49.270;8.696;2022-10-20T14:52:32;15.05;;;9.80;;
8094;SDS011;4090;49.270;8.696;2022-10-20T14:55:26;17.27;;;9.52;;
8094;SDS011;4090;49.270;8.696;2022-10-20T14:58:27;18.73;;;11.02;;
8094;SDS011;4090;49.270;8.696;2022-10-20T15:01:15;14.32;;;9.68;;
8094;SDS011;4090;49.270;8.696;2022-10-20T15:04:04;14.05;;;9.18;;
8094;SDS011;4090;49.270;8.696;2022-10-20T15:06:47;15.27;;;9.68;;
8094;SDS011;4090;49.270;8.696;2022-10-20T15:09:30;18.13;;;9.70;;
8094;SDS011;4090;49.270;8.696;2022-10-20T15:12:14;14.35;;;9.38;;
8094;SDS011;4090;49.270;8.696;2022-10-20T15:15:03;12.77;;;9.27;;
8094;SDS011;4090;49.270;8.696;2022-10-20T15:17:47;15.30;;;8.73;;
8094;SDS011;4090;49.270;8.696;2022-10-20T15:20:34;16.20;;;8.77;;
8094;SDS011;4090;49.270;8.696;2022-10-20T15:23:19;16.15;;;9.60;;
8094;SDS011;4090;49.270;8.696;2022-10-20T15:26:03;16.80;;;8.85;;
8094;SDS011;4090;49.270;8.696;2022-10-20T15:28:46;14.65;;;9.30;;
8094;SDS011;4090;49.270;8.696;2022-10-20T15:31:30;19.15;;;10.40;;
8094;SDS011;4090;49.270;8.696;2022-10-20T15:34:12;14.80;;;9.57;;
8094;SDS011;4090;49.270;8.696;2022-10-20T15:36:54;18.75;;;9.57;;
8094;SDS011;4090;49.270;8.696;2022-10-20T15:39:36;13.35;;;9.23;;
8094;SDS011;4090;49.270;8.696;2022-10-20T15:42:21;19.30;;;9.75;;
8094;SDS011;4090;49.270;8.696;2022-10-20T15:45:07;14.95;;;9.10;;
8094;SDS011;4090;49.270;8.696;2022-10-20T15:47:56;14.43;;;9.57;;
8094;SDS011;4090;49.270;8.696;2022-10-20T15:50:38;13.55;;;9.65;;
8094;SDS011;4090;49.270;8.696;2022-10-20T15:53:21;16.98;;;9.40;;
8094;SDS011;4090;49.270;8.696;2022-10-20T15:56:03;13.07;;;9.38;;
8094;SDS011;4090;49.270;8.696;2022-10-20T15:58:45;17.60;;;10.18;;
8094;SDS011;4090;49.270;8.696;2022-10-20T16:01:29;17.20;;;10.48;;
8094;SDS011;4090;49.270;8.696;2022-10-20T16:04:16;14.32;;;9.18;;
8094;SDS011;4090;49.270;8.696;2022-10-20T16:07:02;15.18;;;9.15;;
8094;SDS011;4090;49.270;8.696;2022-10-20T16:09:44;16.27;;;9.23;;
8094;SDS011;4090;49.270;8.696;2022-10-20T16:12:26;13.75;;;9.40;;
8094;SDS011;4090;49.270;8.696;2022-10-20T16:15:08;17.23;;;10.45;;
8094;SDS011;4090;49.270;8.696;2022-10-20T16:17:51;20.17;;;10.70;;
8094;SDS011;4090;49.270;8.696;2022-10-20T16:20:34;14.85;;;9.50;;
8094;SDS011;4090;49.270;8.696;2022-10-20T16:23:16;17.40;;;10.52;;
8094;SDS011;4090;49.270;8.696;2022-10-20T16:25:58;14.98;;;10.85;;
8094;SDS011;4090;49.270;8.696;2022-10-20T16:28:40;18.88;;;10.65;;
8094;SDS011;4090;49.270;8.696;2022-10-20T16:31:22;15.02;;;10.90;;
8094;SDS011;4090;49.270;8.696;2022-10-20T16:34:04;17.35;;;10.60;;
8094;SDS011;4090;49.270;8.696;2022-10-20T16:36:49;19.45;;;10.85;;
8094;SDS011;4090;49.270;8.696;2022-10-20T16:39:31;20.15;;;11.77;;
8094;SDS011;4090;49.270;8.696;2022-10-20T16:42:13;18.98;;;12.18;;
8094;SDS011;4090;49.270;8.696;2022-10-20T16:44:55;17.60;;;10.57;;
8094;SDS011;4090;49.270;8.696;2022-10-20T16:47:37;17.35;;;11.40;;
8094;SDS011;4090;49.270;8.696;2022-10-20T16:50:19;19.02;;;11.70;;
8094;SDS011;4090;49.270;8.696;2022-10-20T16:53:03;19.30;;;11.13;;
8094;SDS011;4090;49.270;8.696;2022-10-20T16:55:51;22.20;;;12.55;;
8094;SDS011;4090;49.270;8.696;2022-10-20T16:58:34;21.00;;;12.10;;
8094;SDS011;4090;49.270;8.696;2022-10-20T17:01:17;21.45;;;12.32;;
8094;SDS011;4090;49.270;8.696;2022-10-20T17:04:00;27.90;;;15.27;;
8094;SDS011;4090;49.270;8.696;2022-10-20T17:06:42;19.27;;;12.43;;
8094;SDS011;4090;49.270;8.696;2022-10-20T17:09:25;19.75;;;12.68;;
8094;SDS011;4090;49.270;8.696;2022-10-20T17:12:09;19.70;;;12.07;;